sensor_id;sensor_type;location;lat;lon;timestamp;P1;durP1;ratioP1;P2;durP2;ratioP2
75446;SDS011;64024;55.820;37.574;2024-03-02T00:00:18;12.38;;;8.70;;
75446;SDS011;64024;55.820;37.574;2024-03-02T00:02:46;12.98;;;8.45;;
75446;SDS011;64024;55.820;37.574;2024-03-02T00:05:17;13.57;;;8.40;;
75446;SDS011;64024;55.820;37.574;2024-03-02T00:07:44;13.18;;;8.05;;
75446;SDS011;64024;55.820;37.574;2024-03-02T00:10:16;10.32;;;7.47;;
75446;SDS011;64024;55.820;37.574;2024-03-02T00:12:47;12.43;;;8.57;;
75446;SDS011;64024;55.820;37.574;2024-03-02T00:15:39;11.35;;;8.18;;
75446;SDS011;64024;55.820;37.574;2024-03-02T00:18:05;11.10;;;7.95;;
75446;SDS011;64024;55.820;37.574;2024-03-02T00:20:31;13.85;;;8.40;;
75446;SDS011;64024;55.820;37.574;2024-03-02T00:23:03;11.90;;;7.85;;
75446;SDS011;64024;55.820;37.574;2024-03-02T00:33:11;12.43;;;9.20;;
75446;SDS011;64024;55.820;37.574;2024-03-02T00:35:37;14.75;;;8.57;;
75446;SDS011;64024;55.820;37.574;2024-03-02T00:38:06;10.15;;;7.45;;
75446;SDS011;64024;55.820;37.574;2024-03-02T00:40:32;11.57;;;8.52;;
75446;SDS011;64024;55.820;37.574;2024-03-02T00:42:58;11.52;;;8.80;;
75446;SDS011;64024;55.820;37.574;2024-03-02T00:45:25;10.75;;;7.47;;
75446;SDS011;64024;55.820;37.574;2024-03-02T00:47:51;11.52;;;7.78;;
75446;SDS011;64024;55.820;37.574;2024-03-02T00:50:18;13.98;;;8.88;;
75446;SDS011;64024;55.820;37.574;2024-03-02T00:52:44;11.77;;;8.30;;
75446;SDS011;64024;55.820;37.574;2024-03-02T00:55:13;13.13;;;8.00;;
75446;SDS011;64024;55.820;37.574;2024-03-02T00:57:39;13.48;;;9.25;;
75446;SDS011;64024;55.820;37.574;2024-03-02T01:00:06;9.77;;;7.68;;
75446;SDS011;64024;55.820;37.574;2024-03-02T01:02:34;12.35;;;9.38;;
75446;SDS011;64024;55.820;37.574;2024-03-02T01:05:00;14.65;;;9.10;;
75446;SDS011;64024;55.820;37.574;2024-03-02T01:07:26;12.07;;;9.18;;
75446;SDS011;64024;55.820;37.574;2024-03-02T01:09:51;12.00;;;8.43;;
75446;SDS011;64024;55.820;37.574;2024-03-02T01:12:17;13.75;;;8.27;;
75446;SDS011;64024;55.820;37.574;2024-03-02T01:14:43;11.48;;;8.15;;
75446;SDS011;64024;55.820;37.574;2024-03-02T01:17:08;11.43;;;8.40;;
75446;SDS011;64024;55.820;37.574;2024-03-02T01:19:34;10.65;;;8.15;;
75446;SDS011;64024;55.820;37.574;2024-03-02T01:22:00;11.23;;;7.75;;
75446;SDS011;64024;55.820;37.574;2024-03-02T01:24:25;12.68;;;8.68;;
75446;SDS011;64024;55.820;37.574;2024-03-02T01:26:51;12.02;;;8.15;;
75446;SDS011;64024;55.820;37.574;2024-03-02T01:29:17;13.02;;;8.88;;
75446;SDS011;64024;55.820;37.574;2024-03-02T01:31:43;12.52;;;7.82;;
75446;SDS011;64024;55.820;37.574;2024-03-02T01:34:08;15.13;;;8.55;;
75446;SDS011;64024;55.820;37.574;2024-03-02T01:36:34;12.52;;;8.63;;
75446;SDS011;64024;55.820;37.574;2024-03-02T01:39:00;12.48;;;8.25;;
75446;SDS011;64024;55.820;37.574;2024-03-02T01:41:26;13.95;;;9.77;;
75446;SDS011;64024;55.820;37.574;2024-03-02T01:43:52;13.40;;;8.82;;
75446;SDS011;64024;55.820;37.574;2024-03-02T01:46:18;13.63;;;10.15;;
75446;SDS011;64024;55.820;37.574;2024-03-02T01:48:43;13.75;;;8.55;;
75446;SDS011;64024;55.820;37.574;2024-03-02T01:51:09;10.23;;;7.20;;
75446;SDS011;64024;55.820;37.574;2024-03-02T01:53:35;11.02;;;8.25;;
75446;SDS011;64024;55.820;37.574;2024-03-02T01:56:02;13.88;;;9.13;;
75446;SDS011;64024;55.820;37.574;2024-03-02T01:58:28;12.73;;;8.18;;
75446;SDS011;64024;55.820;37.574;2024-03-02T02:00:53;12.90;;;8.20;;
75446;SDS011;64024;55.820;37.574;2024-03-02T02:03:20;12.30;;;8.93;;
75446;SDS011;64024;55.820;37.574;2024-03-02T02:05:46;11.52;;;8.30;;
75446;SDS011;64024;55.820;37.574;2024-03-02T02:08:13;12.80;;;8.90;;
75446;SDS011;64024;55.820;37.574;2024-03-02T02:10:38;12.93;;;8.82;;
75446;SDS011;64024;55.820;37.574;2024-03-02T02:13:04;12.07;;;9.10;;
75446;SDS011;64024;55.820;37.574;2024-03-02T02:15:30;11.10;;;8.07;;
75446;SDS011;64024;55.820;37.574;2024-03-02T02:17:56;12.57;;;9.05;;
75446;SDS011;64024;55.820;37.574;2024-03-02T02:20:23;10.45;;;7.93;;
75446;SDS011;64024;55.820;37.574;2024-03-02T02:25:28;11.45;;;8.05;;
75446;SDS011;64024;55.820;37.574;2024-03-02T02:27:55;12.70;;;8.15;;
75446;SDS011;64024;55.820;37.574;2024-03-02T02:30:22;12.90;;;8.52;;
75446;SDS011;64024;55.820;37.574;2024-03-02T02:32:50;12.15;;;8.38;;
75446;SDS011;64024;55.820;37.574;2024-03-02T02:35:16;13.00;;;8.75;;
75446;SDS011;64024;55.820;37.574;2024-03-02T02:37:41;14.85;;;9.40;;
75446;SDS011;64024;55.820;37.574;2024-03-02T02:40:08;12.18;;;8.13;;
75446;SDS011;64024;55.820;37.574;2024-03-02T02:42:34;12.60;;;7.85;;
75446;SDS011;64024;55.820;37.574;2024-03-02T02:45:00;11.75;;;8.38;;
75446;SDS011;64024;55.820;37.574;2024-03-02T02:47:25;12.73;;;8.23;;
75446;SDS011;64024;55.820;37.574;2024-03-02T02:49:51;11.52;;;8.25;;
75446;SDS011;64024;55.820;37.574;2024-03-02T02:52:18;13.95;;;8.23;;
75446;SDS011;64024;55.820;37.574;2024-03-02T02:54:45;12.65;;;8.77;;
75446;SDS011;64024;55.820;37.574;2024-03-02T02:57:11;12.60;;;8.85;;
75446;SDS011;64024;55.820;37.574;2024-03-02T02:59:36;12.27;;;8.35;;
75446;SDS011;64024;55.820;37.574;2024-03-02T03:02:02;13.07;;;8.65;;
75446;SDS011;64024;55.820;37.574;2024-03-02T03:04:28;12.25;;;8.00;;
75446;SDS011;64024;55.820;37.574;2024-03-02T03:06:53;13.95;;;8.35;;
75446;SDS011;64024;55.820;37.574;2024-03-02T03:09:19;10.02;;;8.38;;
75446;SDS011;64024;55.820;37.574;2024-03-02T03:11:46;14.23;;;8.70;;
75446;SDS011;64024;55.820;37.574;2024-03-02T03:14:11;13.35;;;8.90;;
75446;SDS011;64024;55.820;37.574;2024-03-02T03:16:37;13.93;;;8.50;;
75446;SDS011;64024;55.820;37.574;2024-03-02T03:19:03;14.15;;;8.27;;
75446;SDS011;64024;55.820;37.574;2024-03-02T03:21:29;13.57;;;9.10;;
75446;SDS011;64024;55.820;37.574;2024-03-02T03:23:54;14.27;;;8.73;;
75446;SDS011;64024;55.820;37.574;2024-03-02T03:26:21;15.15;;;9.55;;
75446;SDS011;64024;55.820;37.574;2024-03-02T03:28:48;11.60;;;8.48;;
75446;SDS011;64024;55.820;37.574;2024-03-02T03:31:13;15.00;;;9.85;;
75446;SDS011;64024;55.820;37.574;2024-03-02T03:33:39;13.10;;;8.82;;
75446;SDS011;64024;55.820;37.574;2024-03-02T03:36:05;12.00;;;9.45;;
75446;SDS011;64024;55.820;37.574;2024-03-02T03:38:31;13.55;;;9.40;;
75446;SDS011;64024;55.820;37.574;2024-03-02T03:40:56;13.35;;;8.82;;
75446;SDS011;64024;55.820;37.574;2024-03-02T03:43:22;11.98;;;8.50;;
75446;SDS011;64024;55.820;37.574;2024-03-02T03:45:48;15.07;;;9.75;;
75446;SDS011;64024;55.820;37.574;2024-03-02T03:48:14;14.10;;;9.65;;
75446;SDS011;64024;55.820;37.574;2024-03-02T03:50:39;15.40;;;10.15;;
75446;SDS011;64024;55.820;37.574;2024-03-02T03:53:06;15.43;;;11.43;;
75446;SDS011;64024;55.820;37.574;2024-03-02T03:55:32;13.93;;;9.20;;
75446;SDS011;64024;55.820;37.574;2024-03-02T03:57:57;13.63;;;9.02;;
75446;SDS011;64024;55.820;37.574;2024-03-02T04:00:24;13.10;;;8.98;;
75446;SDS011;64024;55.820;37.574;2024-03-02T04:02:49;15.93;;;9.45;;
75446;SDS011;64024;55.820;37.574;2024-03-02T04:05:15;13.07;;;9.05;;
75446;SDS011;64024;55.820;37.574;2024-03-02T04:07:41;11.25;;;7.82;;
75446;SDS011;64024;55.820;37.574;2024-03-02T04:10:08;13.43;;;8.82;;
75446;SDS011;64024;55.820;37.574;2024-03-02T04:12:35;11.60;;;8.00;;
75446;SDS011;64024;55.820;37.574;2024-03-02T04:15:04;12.48;;;8.60;;
75446;SDS011;64024;55.820;37.574;2024-03-02T04:17:32;11.38;;;8.43;;
75446;SDS011;64024;55.820;37.574;2024-03-02T04:19:59;13.55;;;9.18;;
75446;SDS011;64024;55.820;37.574;2024-03-02T04:22:26;11.98;;;8.90;;
75446;SDS011;64024;55.820;37.574;2024-03-02T04:24:52;16.15;;;9.80;;
75446;SDS011;64024;55.820;37.574;2024-03-02T04:27:18;14.52;;;9.40;;
75446;SDS011;64024;55.820;37.574;2024-03-02T04:29:44;14.55;;;9.35;;
75446;SDS011;64024;55.820;37.574;2024-03-02T04:32:09;12.25;;;8.30;;
75446;SDS011;64024;55.820;37.574;2024-03-02T04:34:35;16.15;;;10.27;;
75446;SDS011;64024;55.820;37.574;2024-03-02T04:37:01;12.25;;;8.88;;
75446;SDS011;64024;55.820;37.574;2024-03-02T04:39:27;15.02;;;9.77;;
75446;SDS011;64024;55.820;37.574;2024-03-02T04:41:53;14.55;;;9.40;;
75446;SDS011;64024;55.820;37.574;2024-03-02T04:44:19;14.13;;;9.70;;
75446;SDS011;64024;55.820;37.574;2024-03-02T04:46:45;14.20;;;9.48;;
75446;SDS011;64024;55.820;37.574;2024-03-02T04:49:10;15.43;;;8.93;;
75446;SDS011;64024;55.820;37.574;2024-03-02T04:51:37;18.00;;;10.02;;
75446;SDS011;64024;55.820;37.574;2024-03-02T04:54:03;14.20;;;10.15;;
75446;SDS011;64024;55.820;37.574;2024-03-02T04:56:29;12.68;;;9.35;;
75446;SDS011;64024;55.820;37.574;2024-03-02T04:58:57;14.65;;;10.18;;
75446;SDS011;64024;55.820;37.574;2024-03-02T05:01:23;15.35;;;9.57;;
75446;SDS011;64024;55.820;37.574;2024-03-02T05:03:49;12.85;;;9.90;;
75446;SDS011;64024;55.820;37.574;2024-03-02T05:06:15;15.05;;;10.88;;
75446;SDS011;64024;55.820;37.574;2024-03-02T05:08:41;14.50;;;9.85;;
75446;SDS011;64024;55.820;37.574;2024-03-02T05:11:06;16.10;;;10.57;;
75446;SDS011;64024;55.820;37.574;2024-03-02T05:13:50;16.13;;;12.00;;
75446;SDS011;64024;55.820;37.574;2024-03-02T05:16:16;14.93;;;9.93;;
75446;SDS011;64024;55.820;37.574;2024-03-02T05:18:42;14.10;;;9.80;;
75446;SDS011;64024;55.820;37.574;2024-03-02T05:21:07;15.65;;;9.95;;
75446;SDS011;64024;55.820;37.574;2024-03-02T05:23:33;15.95;;;10.45;;
75446;SDS011;64024;55.820;37.574;2024-03-02T05:25:59;17.23;;;11.10;;
75446;SDS011;64024;55.820;37.574;2024-03-02T05:28:24;15.18;;;11.95;;
75446;SDS011;64024;55.820;37.574;2024-03-02T05:30:50;13.40;;;10.52;;
75446;SDS011;64024;55.820;37.574;2024-03-02T05:33:16;16.02;;;10.38;;
75446;SDS011;64024;55.820;37.574;2024-03-02T05:35:43;15.93;;;11.48;;
75446;SDS011;64024;55.820;37.574;2024-03-02T05:38:09;14.73;;;11.27;;
75446;SDS011;64024;55.820;37.574;2024-03-02T05:40:35;14.95;;;10.77;;
75446;SDS011;64024;55.820;37.574;2024-03-02T05:43:01;15.88;;;11.25;;
75446;SDS011;64024;55.820;37.574;2024-03-02T05:45:26;17.42;;;11.63;;
75446;SDS011;64024;55.820;37.574;2024-03-02T05:47:52;17.13;;;12.20;;
75446;SDS011;64024;55.820;37.574;2024-03-02T05:50:18;17.60;;;11.98;;
75446;SDS011;64024;55.820;37.574;2024-03-02T05:52:45;16.58;;;11.73;;
75446;SDS011;64024;55.820;37.574;2024-03-02T05:55:10;15.30;;;10.38;;
75446;SDS011;64024;55.820;37.574;2024-03-02T05:57:36;18.98;;;12.98;;
75446;SDS011;64024;55.820;37.574;2024-03-02T06:00:08;19.33;;;11.48;;
75446;SDS011;64024;55.820;37.574;2024-03-02T06:02:34;15.25;;;11.75;;
75446;SDS011;64024;55.820;37.574;2024-03-02T06:05:03;14.73;;;10.07;;
75446;SDS011;64024;55.820;37.574;2024-03-02T06:07:29;15.10;;;11.00;;
75446;SDS011;64024;55.820;37.574;2024-03-02T06:09:55;17.77;;;11.88;;
75446;SDS011;64024;55.820;37.574;2024-03-02T06:12:21;14.48;;;10.55;;
75446;SDS011;64024;55.820;37.574;2024-03-02T06:14:46;13.55;;;11.10;;
75446;SDS011;64024;55.820;37.574;2024-03-02T06:17:12;17.42;;;10.45;;
75446;SDS011;64024;55.820;37.574;2024-03-02T06:19:38;14.05;;;10.32;;
75446;SDS011;64024;55.820;37.574;2024-03-02T06:22:04;14.57;;;10.63;;
75446;SDS011;64024;55.820;37.574;2024-03-02T06:24:30;15.98;;;11.10;;
75446;SDS011;64024;55.820;37.574;2024-03-02T06:26:57;17.42;;;12.13;;
75446;SDS011;64024;55.820;37.574;2024-03-02T06:29:22;17.50;;;10.98;;
75446;SDS011;64024;55.820;37.574;2024-03-02T06:31:48;17.08;;;11.55;;
75446;SDS011;64024;55.820;37.574;2024-03-02T06:34:14;19.05;;;11.13;;
75446;SDS011;64024;55.820;37.574;2024-03-02T06:36:40;14.52;;;11.07;;
75446;SDS011;64024;55.820;37.574;2024-03-02T06:39:07;16.10;;;11.02;;
75446;SDS011;64024;55.820;37.574;2024-03-02T06:41:33;17.00;;;11.57;;
75446;SDS011;64024;55.820;37.574;2024-03-02T06:43:59;21.15;;;11.27;;
75446;SDS011;64024;55.820;37.574;2024-03-02T06:46:25;16.58;;;12.60;;
75446;SDS011;64024;55.820;37.574;2024-03-02T06:48:51;14.25;;;10.55;;
75446;SDS011;64024;55.820;37.574;2024-03-02T06:51:16;16.55;;;12.18;;
75446;SDS011;64024;55.820;37.574;2024-03-02T06:53:42;15.98;;;11.38;;
75446;SDS011;64024;55.820;37.574;2024-03-02T06:56:08;15.88;;;10.75;;
75446;SDS011;64024;55.820;37.574;2024-03-02T06:58:34;17.63;;;11.05;;
75446;SDS011;64024;55.820;37.574;2024-03-02T07:01:00;18.90;;;11.73;;
75446;SDS011;64024;55.820;37.574;2024-03-02T07:03:26;13.38;;;11.00;;
75446;SDS011;64024;55.820;37.574;2024-03-02T07:05:51;13.85;;;9.68;;
75446;SDS011;64024;55.820;37.574;2024-03-02T07:08:17;15.40;;;10.10;;
75446;SDS011;64024;55.820;37.574;2024-03-02T07:10:43;15.25;;;9.68;;
75446;SDS011;64024;55.820;37.574;2024-03-02T07:13:08;12.15;;;9.13;;
75446;SDS011;64024;55.820;37.574;2024-03-02T07:15:34;11.70;;;8.32;;
75446;SDS011;64024;55.820;37.574;2024-03-02T07:18:12;11.13;;;8.25;;
75446;SDS011;64024;55.820;37.574;2024-03-02T07:20:38;11.25;;;9.38;;
75446;SDS011;64024;55.820;37.574;2024-03-02T07:25:52;14.32;;;10.05;;
75446;SDS011;64024;55.820;37.574;2024-03-02T07:28:22;19.90;;;10.00;;
75446;SDS011;64024;55.820;37.574;2024-03-02T07:31:01;14.35;;;10.27;;
75446;SDS011;64024;55.820;37.574;2024-03-02T07:33:30;30.60;;;9.82;;
75446;SDS011;64024;55.820;37.574;2024-03-02T07:35:57;13.93;;;9.63;;
75446;SDS011;64024;55.820;37.574;2024-03-02T07:38:26;10.57;;;8.27;;
75446;SDS011;64024;55.820;37.574;2024-03-02T07:40:53;12.15;;;8.25;;
75446;SDS011;64024;55.820;37.574;2024-03-02T07:43:19;12.13;;;8.77;;
75446;SDS011;64024;55.820;37.574;2024-03-02T07:45:45;13.73;;;8.30;;
75446;SDS011;64024;55.820;37.574;2024-03-02T07:48:11;11.27;;;7.68;;
75446;SDS011;64024;55.820;37.574;2024-03-02T07:50:37;12.20;;;7.88;;
75446;SDS011;64024;55.820;37.574;2024-03-02T07:53:04;11.48;;;8.02;;
75446;SDS011;64024;55.820;37.574;2024-03-02T07:55:31;11.15;;;7.90;;
75446;SDS011;64024;55.820;37.574;2024-03-02T07:57:57;11.10;;;7.55;;
75446;SDS011;64024;55.820;37.574;2024-03-02T08:00:23;12.57;;;9.20;;
75446;SDS011;64024;55.820;37.574;2024-03-02T08:02:49;11.43;;;7.60;;
75446;SDS011;64024;55.820;37.574;2024-03-02T08:05:18;12.55;;;8.93;;
75446;SDS011;64024;55.820;37.574;2024-03-02T08:07:44;12.07;;;7.88;;
75446;SDS011;64024;55.820;37.574;2024-03-02T08:10:11;13.93;;;7.97;;
75446;SDS011;64024;55.820;37.574;2024-03-02T08:12:38;10.63;;;7.13;;
75446;SDS011;64024;55.820;37.574;2024-03-02T08:15:04;11.20;;;7.32;;
75446;SDS011;64024;55.820;37.574;2024-03-02T08:17:30;10.10;;;7.28;;
75446;SDS011;64024;55.820;37.574;2024-03-02T08:19:56;9.38;;;6.97;;
75446;SDS011;64024;55.820;37.574;2024-03-02T08:22:22;11.43;;;7.05;;
75446;SDS011;64024;55.820;37.574;2024-03-02T08:24:50;10.52;;;8.43;;
75446;SDS011;64024;55.820;37.574;2024-03-02T08:27:16;9.60;;;6.85;;
75446;SDS011;64024;55.820;37.574;2024-03-02T08:29:42;11.35;;;7.93;;
75446;SDS011;64024;55.820;37.574;2024-03-02T08:32:08;11.07;;;7.35;;
75446;SDS011;64024;55.820;37.574;2024-03-02T08:34:33;8.95;;;6.88;;
75446;SDS011;64024;55.820;37.574;2024-03-02T08:37:03;10.82;;;7.30;;
75446;SDS011;64024;55.820;37.574;2024-03-02T08:39:29;9.80;;;6.72;;
75446;SDS011;64024;55.820;37.574;2024-03-02T08:41:55;9.90;;;7.40;;
75446;SDS011;64024;55.820;37.574;2024-03-02T08:44:20;10.60;;;7.32;;
75446;SDS011;64024;55.820;37.574;2024-03-02T08:46:46;11.63;;;7.75;;
75446;SDS011;64024;55.820;37.574;2024-03-02T08:49:12;10.82;;;7.15;;
75446;SDS011;64024;55.820;37.574;2024-03-02T08:51:38;12.38;;;6.50;;
75446;SDS011;64024;55.820;37.574;2024-03-02T08:54:04;9.98;;;6.40;;
75446;SDS011;64024;55.820;37.574;2024-03-02T08:56:30;10.38;;;7.00;;
75446;SDS011;64024;55.820;37.574;2024-03-02T08:58:56;11.25;;;6.78;;
75446;SDS011;64024;55.820;37.574;2024-03-02T09:01:22;9.98;;;7.13;;
75446;SDS011;64024;55.820;37.574;2024-03-02T09:03:48;9.10;;;6.50;;
75446;SDS011;64024;55.820;37.574;2024-03-02T09:06:16;7.82;;;5.90;;
75446;SDS011;64024;55.820;37.574;2024-03-02T09:08:43;9.63;;;6.45;;
75446;SDS011;64024;55.820;37.574;2024-03-02T09:11:09;8.40;;;6.57;;
75446;SDS011;64024;55.820;37.574;2024-03-02T09:13:36;9.65;;;6.88;;
75446;SDS011;64024;55.820;37.574;2024-03-02T09:16:02;9.27;;;6.88;;
75446;SDS011;64024;55.820;37.574;2024-03-02T09:18:29;9.85;;;6.53;;
75446;SDS011;64024;55.820;37.574;2024-03-02T09:20:54;9.65;;;7.07;;
75446;SDS011;64024;55.820;37.574;2024-03-02T09:23:20;8.95;;;6.43;;
75446;SDS011;64024;55.820;37.574;2024-03-02T09:25:46;9.75;;;6.45;;
75446;SDS011;64024;55.820;37.574;2024-03-02T09:28:12;9.00;;;6.45;;
75446;SDS011;64024;55.820;37.574;2024-03-02T09:30:37;12.35;;;6.50;;
75446;SDS011;64024;55.820;37.574;2024-03-02T09:33:04;8.55;;;6.13;;
75446;SDS011;64024;55.820;37.574;2024-03-02T09:35:30;9.20;;;6.53;;
75446;SDS011;64024;55.820;37.574;2024-03-02T09:37:56;8.45;;;6.75;;
75446;SDS011;64024;55.820;37.574;2024-03-02T09:40:22;8.32;;;6.40;;
75446;SDS011;64024;55.820;37.574;2024-03-02T09:42:47;8.30;;;5.72;;
75446;SDS011;64024;55.820;37.574;2024-03-02T09:45:22;8.43;;;6.68;;
75446;SDS011;64024;55.820;37.574;2024-03-02T09:47:49;9.20;;;6.15;;
75446;SDS011;64024;55.820;37.574;2024-03-02T09:50:14;9.00;;;6.47;;
75446;SDS011;64024;55.820;37.574;2024-03-02T09:52:42;7.80;;;6.18;;
75446;SDS011;64024;55.820;37.574;2024-03-02T09:55:09;6.80;;;5.78;;
75446;SDS011;64024;55.820;37.574;2024-03-02T09:57:36;7.65;;;6.30;;
75446;SDS011;64024;55.820;37.574;2024-03-02T10:00:02;10.68;;;6.47;;
75446;SDS011;64024;55.820;37.574;2024-03-02T10:02:29;6.95;;;5.60;;
75446;SDS011;64024;55.820;37.574;2024-03-02T10:04:54;9.00;;;6.72;;
75446;SDS011;64024;55.820;37.574;2024-03-02T10:07:20;8.25;;;5.85;;
75446;SDS011;64024;55.820;37.574;2024-03-02T10:09:46;9.10;;;6.22;;
75446;SDS011;64024;55.820;37.574;2024-03-02T10:12:14;9.93;;;6.30;;
75446;SDS011;64024;55.820;37.574;2024-03-02T10:14:42;8.00;;;6.50;;
75446;SDS011;64024;55.820;37.574;2024-03-02T10:17:09;6.93;;;5.50;;
75446;SDS011;64024;55.820;37.574;2024-03-02T10:19:36;7.07;;;5.88;;
75446;SDS011;64024;55.820;37.574;2024-03-02T10:22:06;8.07;;;5.90;;
75446;SDS011;64024;55.820;37.574;2024-03-02T10:24:39;7.30;;;5.20;;
75446;SDS011;64024;55.820;37.574;2024-03-02T10:27:09;6.65;;;5.22;;
75446;SDS011;64024;55.820;37.574;2024-03-02T10:29:48;8.38;;;5.53;;
75446;SDS011;64024;55.820;37.574;2024-03-02T10:32:15;7.80;;;5.78;;
75446;SDS011;64024;55.820;37.574;2024-03-02T10:34:42;6.22;;;4.75;;
75446;SDS011;64024;55.820;37.574;2024-03-02T10:37:10;10.02;;;6.22;;
75446;SDS011;64024;55.820;37.574;2024-03-02T10:42:05;7.25;;;5.18;;
75446;SDS011;64024;55.820;37.574;2024-03-02T10:44:32;6.82;;;4.95;;
75446;SDS011;64024;55.820;37.574;2024-03-02T10:47:02;8.93;;;6.50;;
75446;SDS011;64024;55.820;37.574;2024-03-02T10:49:29;8.05;;;5.15;;
75446;SDS011;64024;55.820;37.574;2024-03-02T10:54:22;5.53;;;4.63;;
75446;SDS011;64024;55.820;37.574;2024-03-02T10:56:52;7.90;;;5.88;;
75446;SDS011;64024;55.820;37.574;2024-03-02T10:59:32;8.25;;;5.32;;
75446;SDS011;64024;55.820;37.574;2024-03-02T11:02:00;8.00;;;5.82;;
75446;SDS011;64024;55.820;37.574;2024-03-02T11:04:28;8.15;;;6.32;;
75446;SDS011;64024;55.820;37.574;2024-03-02T11:06:56;7.80;;;5.63;;
75446;SDS011;64024;55.820;37.574;2024-03-02T11:09:26;7.43;;;5.50;;
75446;SDS011;64024;55.820;37.574;2024-03-02T11:11:56;10.35;;;5.35;;
75446;SDS011;64024;55.820;37.574;2024-03-02T11:14:29;8.25;;;6.13;;
75446;SDS011;64024;55.820;37.574;2024-03-02T11:17:00;7.90;;;5.22;;
75446;SDS011;64024;55.820;37.574;2024-03-02T11:19:29;9.07;;;5.40;;
75446;SDS011;64024;55.820;37.574;2024-03-02T11:26:58;9.27;;;5.60;;
75446;SDS011;64024;55.820;37.574;2024-03-02T11:32:02;8.88;;;6.47;;
75446;SDS011;64024;55.820;37.574;2024-03-02T11:34:34;7.18;;;5.13;;
75446;SDS011;64024;55.820;37.574;2024-03-02T11:37:01;7.32;;;5.28;;
75446;SDS011;64024;55.820;37.574;2024-03-02T11:39:27;8.93;;;6.57;;
75446;SDS011;64024;55.820;37.574;2024-03-02T11:41:58;8.27;;;6.05;;
75446;SDS011;64024;55.820;37.574;2024-03-02T11:44:28;7.65;;;5.30;;
75446;SDS011;64024;55.820;37.574;2024-03-02T11:47:00;9.38;;;6.07;;
75446;SDS011;64024;55.820;37.574;2024-03-02T11:49:39;9.93;;;5.38;;
75446;SDS011;64024;55.820;37.574;2024-03-02T11:52:14;8.70;;;5.63;;
75446;SDS011;64024;55.820;37.574;2024-03-02T11:54:42;7.50;;;5.47;;
75446;SDS011;64024;55.820;37.574;2024-03-02T11:57:19;7.07;;;5.45;;
75446;SDS011;64024;55.820;37.574;2024-03-02T11:59:49;6.22;;;5.18;;
75446;SDS011;64024;55.820;37.574;2024-03-02T12:02:16;8.98;;;6.47;;
75446;SDS011;64024;55.820;37.574;2024-03-02T12:04:45;7.53;;;4.97;;
75446;SDS011;64024;55.820;37.574;2024-03-02T12:07:21;7.88;;;5.28;;
75446;SDS011;64024;55.820;37.574;2024-03-02T12:10:09;7.32;;;4.95;;
75446;SDS011;64024;55.820;37.574;2024-03-02T12:12:34;6.80;;;5.13;;
75446;SDS011;64024;55.820;37.574;2024-03-02T12:15:00;10.10;;;5.50;;
75446;SDS011;64024;55.820;37.574;2024-03-02T12:17:26;7.10;;;5.15;;
75446;SDS011;64024;55.820;37.574;2024-03-02T12:19:51;8.25;;;5.38;;
75446;SDS011;64024;55.820;37.574;2024-03-02T12:22:18;7.82;;;5.53;;
75446;SDS011;64024;55.820;37.574;2024-03-02T12:24:44;7.35;;;5.13;;
75446;SDS011;64024;55.820;37.574;2024-03-02T12:27:11;6.53;;;5.32;;
75446;SDS011;64024;55.820;37.574;2024-03-02T12:29:37;8.45;;;4.90;;
75446;SDS011;64024;55.820;37.574;2024-03-02T12:32:04;7.32;;;5.07;;
75446;SDS011;64024;55.820;37.574;2024-03-02T12:34:31;7.60;;;4.75;;
75446;SDS011;64024;55.820;37.574;2024-03-02T12:36:57;5.70;;;4.07;;
75446;SDS011;64024;55.820;37.574;2024-03-02T12:39:23;6.25;;;4.60;;
75446;SDS011;64024;55.820;37.574;2024-03-02T12:41:49;6.10;;;4.45;;
75446;SDS011;64024;55.820;37.574;2024-03-02T12:44:16;7.05;;;4.85;;
75446;SDS011;64024;55.820;37.574;2024-03-02T12:46:44;7.40;;;5.30;;
75446;SDS011;64024;55.820;37.574;2024-03-02T12:49:11;5.93;;;4.85;;
75446;SDS011;64024;55.820;37.574;2024-03-02T12:51:40;8.52;;;6.03;;
75446;SDS011;64024;55.820;37.574;2024-03-02T12:54:07;9.55;;;5.53;;
75446;SDS011;64024;55.820;37.574;2024-03-02T12:56:33;7.90;;;4.57;;
75446;SDS011;64024;55.820;37.574;2024-03-02T12:59:02;6.63;;;4.50;;
75446;SDS011;64024;55.820;37.574;2024-03-02T13:01:27;8.10;;;5.30;;
75446;SDS011;64024;55.820;37.574;2024-03-02T13:03:53;7.32;;;5.05;;
75446;SDS011;64024;55.820;37.574;2024-03-02T13:08:46;6.47;;;4.18;;
75446;SDS011;64024;55.820;37.574;2024-03-02T13:11:12;7.30;;;5.25;;
75446;SDS011;64024;55.820;37.574;2024-03-02T13:13:39;7.28;;;5.15;;
75446;SDS011;64024;55.820;37.574;2024-03-02T13:16:14;9.07;;;5.63;;
75446;SDS011;64024;55.820;37.574;2024-03-02T13:18:41;6.80;;;5.20;;
75446;SDS011;64024;55.820;37.574;2024-03-02T13:21:07;6.93;;;5.20;;
75446;SDS011;64024;55.820;37.574;2024-03-02T13:23:33;7.22;;;4.97;;
75446;SDS011;64024;55.820;37.574;2024-03-02T13:26:00;8.07;;;6.07;;
75446;SDS011;64024;55.820;37.574;2024-03-02T13:28:26;8.98;;;6.13;;
75446;SDS011;64024;55.820;37.574;2024-03-02T13:30:51;8.32;;;6.15;;
75446;SDS011;64024;55.820;37.574;2024-03-02T13:33:20;7.18;;;5.00;;
75446;SDS011;64024;55.820;37.574;2024-03-02T13:35:50;7.75;;;5.70;;
75446;SDS011;64024;55.820;37.574;2024-03-02T13:38:18;7.85;;;5.95;;
75446;SDS011;64024;55.820;37.574;2024-03-02T13:40:44;10.10;;;6.18;;
75446;SDS011;64024;55.820;37.574;2024-03-02T13:43:10;7.40;;;5.35;;
75446;SDS011;64024;55.820;37.574;2024-03-02T13:45:37;6.38;;;4.35;;
75446;SDS011;64024;55.820;37.574;2024-03-02T13:48:03;6.88;;;4.82;;
75446;SDS011;64024;55.820;37.574;2024-03-02T13:50:29;6.70;;;4.88;;
75446;SDS011;64024;55.820;37.574;2024-03-02T13:52:55;5.75;;;4.75;;
75446;SDS011;64024;55.820;37.574;2024-03-02T13:55:22;6.32;;;4.78;;
75446;SDS011;64024;55.820;37.574;2024-03-02T13:57:48;5.45;;;4.25;;
75446;SDS011;64024;55.820;37.574;2024-03-02T14:00:16;5.72;;;4.00;;
75446;SDS011;64024;55.820;37.574;2024-03-02T14:02:43;6.53;;;4.75;;
75446;SDS011;64024;55.820;37.574;2024-03-02T14:05:09;6.13;;;4.85;;
75446;SDS011;64024;55.820;37.574;2024-03-02T14:07:40;6.47;;;4.55;;
75446;SDS011;64024;55.820;37.574;2024-03-02T14:10:07;7.60;;;4.90;;
75446;SDS011;64024;55.820;37.574;2024-03-02T14:12:33;6.97;;;4.35;;
75446;SDS011;64024;55.820;37.574;2024-03-02T14:14:59;7.55;;;4.50;;
75446;SDS011;64024;55.820;37.574;2024-03-02T14:17:27;7.57;;;5.00;;
75446;SDS011;64024;55.820;37.574;2024-03-02T14:19:53;6.68;;;4.90;;
75446;SDS011;64024;55.820;37.574;2024-03-02T14:22:21;6.55;;;4.78;;
75446;SDS011;64024;55.820;37.574;2024-03-02T14:24:47;5.40;;;4.80;;
75446;SDS011;64024;55.820;37.574;2024-03-02T14:27:14;6.88;;;4.55;;
75446;SDS011;64024;55.820;37.574;2024-03-02T14:30:00;5.75;;;4.68;;
75446;SDS011;64024;55.820;37.574;2024-03-02T14:32:26;7.22;;;4.38;;
75446;SDS011;64024;55.820;37.574;2024-03-02T14:34:52;5.70;;;3.90;;
75446;SDS011;64024;55.820;37.574;2024-03-02T14:37:17;6.05;;;4.85;;
75446;SDS011;64024;55.820;37.574;2024-03-02T14:39:43;6.57;;;4.85;;
75446;SDS011;64024;55.820;37.574;2024-03-02T14:42:09;7.95;;;4.43;;
75446;SDS011;64024;55.820;37.574;2024-03-02T14:44:34;5.70;;;4.38;;
75446;SDS011;64024;55.820;37.574;2024-03-02T14:47:01;8.35;;;6.00;;
75446;SDS011;64024;55.820;37.574;2024-03-02T14:49:29;7.35;;;5.13;;